Terminal Aerodrome Forecast
Issued by NWS Lubbock, TX

Home | Current Version | Previous Version | Text Only | Print | Product List | Glossary On
Versions: 1 2 3 4 5 6 7 8 9 10 11 12 13 14 15 16
245
FTUS44 KLUB 242331
TAFLBB
TAF
KLBB 242331Z 2500/2524 15008KT P6SM FEW050 BKN150
     FM251200 05008KT 6SM -SHRA FEW007 SCT015 BKN035=

USA.gov is the U.S. government's official web portal to all federal, state and local government web resources and services.